sensor_id;sensor_type;location;lat;lon;timestamp;pressure;altitude;pressure_sealevel;temperature;humidity
39075;BME280;24826;52.070;20.970;2023-02-28T00:00:27;61508.03;;;-147.04;59.36
39075;BME280;24826;52.070;20.970;2023-02-28T00:03:18;61488.13;;;-147.04;58.84
39075;BME280;24826;52.070;20.970;2023-02-28T00:06:06;61527.91;;;-147.04;59.24
39075;BME280;24826;52.070;20.970;2023-02-28T00:08:51;61515.97;;;-147.04;59.95
39075;BME280;24826;52.070;20.970;2023-02-28T00:11:35;61539.84;;;-147.04;60.33
39075;BME280;24826;52.070;20.970;2023-02-28T00:14:21;61508.03;;;-147.04;60.46
39075;BME280;24826;52.070;20.970;2023-02-28T00:17:06;61529.91;;;-147.04;60.69
39075;BME280;24826;52.070;20.970;2023-02-28T00:19:51;61504.03;;;-147.04;60.72
39075;BME280;24826;52.070;20.970;2023-02-28T00:22:36;61573.66;;;-147.04;59.91
39075;BME280;24826;52.070;20.970;2023-02-28T00:25:23;61531.88;;;-147.04;58.93
39075;BME280;24826;52.070;20.970;2023-02-28T00:28:08;61533.88;;;-147.04;59.63
39075;BME280;24826;52.070;20.970;2023-02-28T00:30:52;61510.00;;;-147.04;59.90
39075;BME280;24826;52.070;20.970;2023-02-28T00:33:37;61512.00;;;-147.04;61.11
39075;BME280;24826;52.070;20.970;2023-02-28T00:36:21;61551.78;;;-147.04;60.68
39075;BME280;24826;52.070;20.970;2023-02-28T00:39:06;61531.88;;;-147.04;61.54
39075;BME280;24826;52.070;20.970;2023-02-28T00:41:50;61488.13;;;-147.04;61.48
39075;BME280;24826;52.070;20.970;2023-02-28T00:44:35;61543.81;;;-147.04;60.43
39075;BME280;24826;52.070;20.970;2023-02-28T00:47:19;61545.81;;;-147.04;61.84
39075;BME280;24826;52.070;20.970;2023-02-28T00:50:04;61535.88;;;-147.04;61.49
39075;BME280;24826;52.070;20.970;2023-02-28T00:52:49;61517.97;;;-147.04;62.04
39075;BME280;24826;52.070;20.970;2023-02-28T00:55:33;61527.91;;;-147.04;62.10
39075;BME280;24826;52.070;20.970;2023-02-28T00:58:17;61553.75;;;-147.04;63.06
39075;BME280;24826;52.070;20.970;2023-02-28T01:01:03;61523.94;;;-147.04;63.16
39075;BME280;24826;52.070;20.970;2023-02-28T01:03:47;61512.00;;;-147.04;63.53
39075;BME280;24826;52.070;20.970;2023-02-28T01:06:31;61547.78;;;-147.04;64.57
39075;BME280;24826;52.070;20.970;2023-02-28T01:09:16;61545.81;;;-147.04;64.42
39075;BME280;24826;52.070;20.970;2023-02-28T01:12:00;61567.69;;;-147.04;65.14
39075;BME280;24826;52.070;20.970;2023-02-28T01:14:45;61506.03;;;-147.04;65.05
39075;BME280;24826;52.070;20.970;2023-02-28T01:17:29;61539.84;;;-147.04;65.89
39075;BME280;24826;52.070;20.970;2023-02-28T01:20:13;61569.66;;;-147.04;67.45
39075;BME280;24826;52.070;20.970;2023-02-28T01:22:58;61523.94;;;-147.04;67.75
39075;BME280;24826;52.070;20.970;2023-02-28T01:25:42;61559.72;;;-147.04;68.58
39075;BME280;24826;52.070;20.970;2023-02-28T01:28:27;61549.78;;;-147.04;69.26
39075;BME280;24826;52.070;20.970;2023-02-28T01:31:11;61545.81;;;-147.04;69.76
39075;BME280;24826;52.070;20.970;2023-02-28T01:33:56;61551.78;;;-147.04;69.77
39075;BME280;24826;52.070;20.970;2023-02-28T01:36:40;61587.56;;;-147.04;70.17
39075;BME280;24826;52.070;20.970;2023-02-28T01:39:25;61535.88;;;-147.04;69.97
39075;BME280;24826;52.070;20.970;2023-02-28T01:42:13;61559.72;;;-147.04;70.84
39075;BME280;24826;52.070;20.970;2023-02-28T01:44:59;61569.66;;;-147.04;70.40
39075;BME280;24826;52.070;20.970;2023-02-28T01:47:44;61551.78;;;-147.04;70.81
39075;BME280;24826;52.070;20.970;2023-02-28T01:50:33;61567.69;;;-147.04;71.23
39075;BME280;24826;52.070;20.970;2023-02-28T01:53:21;61575.63;;;-147.04;71.35
39075;BME280;24826;52.070;20.970;2023-02-28T01:56:09;61593.53;;;-147.04;70.56
39075;BME280;24826;52.070;20.970;2023-02-28T01:58:56;61577.63;;;-147.04;72.10
39075;BME280;24826;52.070;20.970;2023-02-28T02:01:41;61549.78;;;-147.04;71.53
39075;BME280;24826;52.070;20.970;2023-02-28T02:04:27;61555.75;;;-147.04;70.92
39075;BME280;24826;52.070;20.970;2023-02-28T02:07:17;61563.69;;;-147.04;71.62
39075;BME280;24826;52.070;20.970;2023-02-28T02:10:17;61573.66;;;-147.04;71.61
39075;BME280;24826;52.070;20.970;2023-02-28T02:26:32;61555.75;;;-147.04;74.10
39075;BME280;24826;52.070;20.970;2023-02-28T02:29:38;61567.69;;;-147.04;74.95
39075;BME280;24826;52.070;20.970;2023-02-28T02:38:25;61587.56;;;-147.04;74.90
39075;BME280;24826;52.070;20.970;2023-02-28T02:41:39;61567.69;;;-147.04;74.77
39075;BME280;24826;52.070;20.970;2023-02-28T02:44:47;61569.66;;;-147.04;75.31
39075;BME280;24826;52.070;20.970;2023-02-28T02:47:33;61601.47;;;-147.04;75.51
39075;BME280;24826;52.070;20.970;2023-02-28T02:50:24;61607.44;;;-147.04;75.89
39075;BME280;24826;52.070;20.970;2023-02-28T02:53:11;61601.47;;;-147.04;75.15
39075;BME280;24826;52.070;20.970;2023-02-28T02:55:59;61591.53;;;-147.04;75.23
39075;BME280;24826;52.070;20.970;2023-02-28T02:58:47;61579.59;;;-147.04;74.97
39075;BME280;24826;52.070;20.970;2023-02-28T03:01:34;61595.53;;;-147.04;76.35
39075;BME280;24826;52.070;20.970;2023-02-28T03:04:22;61587.56;;;-147.04;76.13
39075;BME280;24826;52.070;20.970;2023-02-28T03:07:07;61605.47;;;-147.04;76.42
39075;BME280;24826;52.070;20.970;2023-02-28T03:09:56;61579.59;;;-147.04;76.37
39075;BME280;24826;52.070;20.970;2023-02-28T03:12:49;61575.63;;;-147.04;77.77
39075;BME280;24826;52.070;20.970;2023-02-28T03:25:30;61597.50;;;-147.04;78.77
39075;BME280;24826;52.070;20.970;2023-02-28T03:28:41;61617.38;;;-147.04;78.71
39075;BME280;24826;52.070;20.970;2023-02-28T03:31:39;61865.97;;;-147.04;78.66
39075;BME280;24826;52.070;20.970;2023-02-28T03:34:34;61591.53;;;-147.04;78.39
39075;BME280;24826;52.070;20.970;2023-02-28T03:37:23;61595.53;;;-147.04;78.23
39075;BME280;24826;52.070;20.970;2023-02-28T03:40:15;61591.53;;;-147.04;78.33
39075;BME280;24826;52.070;20.970;2023-02-28T03:43:07;61575.63;;;-147.04;78.02
39075;BME280;24826;52.070;20.970;2023-02-28T03:45:54;61583.59;;;-147.04;78.11
39075;BME280;24826;52.070;20.970;2023-02-28T03:48:48;61617.38;;;-147.04;77.59
39075;BME280;24826;52.070;20.970;2023-02-28T03:51:35;61603.47;;;-147.04;77.94
39075;BME280;24826;52.070;20.970;2023-02-28T03:54:24;61603.47;;;-147.04;78.30
39075;BME280;24826;52.070;20.970;2023-02-28T03:57:29;61583.59;;;-147.04;78.08
39075;BME280;24826;52.070;20.970;2023-02-28T04:00:26;61623.34;;;-147.04;78.71
39075;BME280;24826;52.070;20.970;2023-02-28T04:03:12;61597.50;;;-147.04;78.89
39075;BME280;24826;52.070;20.970;2023-02-28T04:05:57;61611.44;;;-147.04;78.38
39075;BME280;24826;52.070;20.970;2023-02-28T04:08:42;61575.63;;;-147.04;77.84
39075;BME280;24826;52.070;20.970;2023-02-28T04:14:19;61593.53;;;-147.04;77.23
39075;BME280;24826;52.070;20.970;2023-02-28T04:17:04;61625.34;;;-147.04;77.03
39075;BME280;24826;52.070;20.970;2023-02-28T04:19:48;61629.31;;;-147.04;77.00
39075;BME280;24826;52.070;20.970;2023-02-28T04:22:32;61595.53;;;-147.04;76.89
39075;BME280;24826;52.070;20.970;2023-02-28T04:25:16;61615.41;;;-147.04;77.28
39075;BME280;24826;52.070;20.970;2023-02-28T04:28:01;61585.56;;;-147.04;76.86
39075;BME280;24826;52.070;20.970;2023-02-28T04:30:45;61609.44;;;-147.04;77.99
39075;BME280;24826;52.070;20.970;2023-02-28T04:33:31;61595.53;;;-147.04;78.07
39075;BME280;24826;52.070;20.970;2023-02-28T04:36:15;61615.41;;;-147.04;78.51
39075;BME280;24826;52.070;20.970;2023-02-28T04:39:01;61621.38;;;-147.04;78.51
39075;BME280;24826;52.070;20.970;2023-02-28T04:41:46;61595.53;;;-147.04;77.20
39075;BME280;24826;52.070;20.970;2023-02-28T04:44:30;61597.50;;;-147.04;77.75
39075;BME280;24826;52.070;20.970;2023-02-28T04:47:15;61583.59;;;-147.04;78.55
39075;BME280;24826;52.070;20.970;2023-02-28T04:50:00;61627.34;;;-147.04;78.42
39075;BME280;24826;52.070;20.970;2023-02-28T04:52:44;61607.44;;;-147.04;78.43
39075;BME280;24826;52.070;20.970;2023-02-28T04:55:28;61623.34;;;-147.04;78.10
39075;BME280;24826;52.070;20.970;2023-02-28T04:58:13;61599.50;;;-147.04;77.50
39075;BME280;24826;52.070;20.970;2023-02-28T05:01:16;61595.53;;;-147.04;77.03
39075;BME280;24826;52.070;20.970;2023-02-28T05:04:02;61627.34;;;-147.04;77.41
39075;BME280;24826;52.070;20.970;2023-02-28T05:06:47;61609.44;;;-147.04;77.36
39075;BME280;24826;52.070;20.970;2023-02-28T05:09:31;61607.44;;;-147.04;78.19
39075;BME280;24826;52.070;20.970;2023-02-28T05:12:17;61597.50;;;-147.04;77.99
39075;BME280;24826;52.070;20.970;2023-02-28T05:15:02;61651.19;;;-147.04;78.69
39075;BME280;24826;52.070;20.970;2023-02-28T05:17:46;61629.31;;;-147.04;78.33
39075;BME280;24826;52.070;20.970;2023-02-28T05:20:31;61631.31;;;-147.04;77.88
39075;BME280;24826;52.070;20.970;2023-02-28T05:23:16;61605.47;;;-147.04;78.74
39075;BME280;24826;52.070;20.970;2023-02-28T05:26:01;61637.28;;;-147.04;79.08
39075;BME280;24826;52.070;20.970;2023-02-28T05:28:46;61633.31;;;-147.04;79.12
39075;BME280;24826;52.070;20.970;2023-02-28T05:31:31;61619.38;;;-147.04;78.48
39075;BME280;24826;52.070;20.970;2023-02-28T05:34:15;61675.06;;;-147.04;78.04
39075;BME280;24826;52.070;20.970;2023-02-28T05:37:00;61623.34;;;-147.04;77.95
39075;BME280;24826;52.070;20.970;2023-02-28T05:39:44;61625.34;;;-147.04;77.51
39075;BME280;24826;52.070;20.970;2023-02-28T05:42:28;61649.22;;;-147.04;77.72
39075;BME280;24826;52.070;20.970;2023-02-28T05:45:13;61671.09;;;-147.04;79.27
39075;BME280;24826;52.070;20.970;2023-02-28T05:47:57;61627.34;;;-147.04;79.32
39075;BME280;24826;52.070;20.970;2023-02-28T05:50:41;61633.31;;;-147.04;79.99
39075;BME280;24826;52.070;20.970;2023-02-28T05:53:26;61679.03;;;-147.04;79.69
39075;BME280;24826;52.070;20.970;2023-02-28T05:56:11;61722.78;;;-147.04;79.52
39075;BME280;24826;52.070;20.970;2023-02-28T05:58:55;61696.94;;;-147.04;79.32
39075;BME280;24826;52.070;20.970;2023-02-28T06:01:42;61663.13;;;-147.04;78.94
39075;BME280;24826;52.070;20.970;2023-02-28T06:04:28;61669.09;;;-147.04;78.40
39075;BME280;24826;52.070;20.970;2023-02-28T06:07:12;61679.03;;;-147.04;79.08
39075;BME280;24826;52.070;20.970;2023-02-28T06:09:57;61702.91;;;-147.04;79.46
39075;BME280;24826;52.070;20.970;2023-02-28T06:12:42;61679.03;;;-147.04;79.65
39075;BME280;24826;52.070;20.970;2023-02-28T06:15:26;61718.81;;;-147.04;79.81
39075;BME280;24826;52.070;20.970;2023-02-28T06:18:11;61706.88;;;-147.04;80.60
39075;BME280;24826;52.070;20.970;2023-02-28T06:20:55;61722.78;;;-147.04;81.39
39075;BME280;24826;52.070;20.970;2023-02-28T06:23:40;61706.88;;;-147.04;82.46
39075;BME280;24826;52.070;20.970;2023-02-28T06:26:24;61667.09;;;-147.04;83.31
39075;BME280;24826;52.070;20.970;2023-02-28T06:29:09;61675.06;;;-147.04;83.83
39075;BME280;24826;52.070;20.970;2023-02-28T06:31:53;61683.00;;;-147.04;84.77
39075;BME280;24826;52.070;20.970;2023-02-28T06:34:38;61696.94;;;-147.04;85.68
39075;BME280;24826;52.070;20.970;2023-02-28T06:37:22;61667.09;;;-147.04;85.47
39075;BME280;24826;52.070;20.970;2023-02-28T06:40:10;61692.97;;;-147.04;84.54
39075;BME280;24826;52.070;20.970;2023-02-28T06:42:54;61667.09;;;-147.04;83.63
39075;BME280;24826;52.070;20.970;2023-02-28T06:45:43;61643.25;;;-147.04;83.17
39075;BME280;24826;52.070;20.970;2023-02-28T06:48:28;61639.25;;;-147.04;82.37
39075;BME280;24826;52.070;20.970;2023-02-28T06:51:15;61659.16;;;-147.04;82.13
39075;BME280;24826;52.070;20.970;2023-02-28T06:53:59;61629.31;;;-147.04;81.05
39075;BME280;24826;52.070;20.970;2023-02-28T06:56:44;61611.44;;;-147.04;80.24
39075;BME280;24826;52.070;20.970;2023-02-28T06:59:29;61615.41;;;-147.04;79.67
39075;BME280;24826;52.070;20.970;2023-02-28T07:02:13;61619.38;;;-147.04;79.38
39075;BME280;24826;52.070;20.970;2023-02-28T07:04:58;61607.44;;;-147.04;78.99
39075;BME280;24826;52.070;20.970;2023-02-28T07:07:42;61627.34;;;-147.04;77.95
39075;BME280;24826;52.070;20.970;2023-02-28T07:10:30;61603.47;;;-147.04;78.39
39075;BME280;24826;52.070;20.970;2023-02-28T07:13:14;61607.44;;;-147.04;78.51
39075;BME280;24826;52.070;20.970;2023-02-28T07:16:01;61577.63;;;-147.04;77.20
39075;BME280;24826;52.070;20.970;2023-02-28T07:18:45;61591.53;;;-147.04;76.60
39075;BME280;24826;52.070;20.970;2023-02-28T07:21:30;61581.59;;;-147.04;75.65
39075;BME280;24826;52.070;20.970;2023-02-28T07:24:14;61571.66;;;-147.04;74.95
39075;BME280;24826;52.070;20.970;2023-02-28T07:26:59;61543.81;;;-147.04;74.96
39075;BME280;24826;52.070;20.970;2023-02-28T07:29:45;61583.59;;;-147.04;74.18
39075;BME280;24826;52.070;20.970;2023-02-28T07:32:29;61571.66;;;-147.04;71.67
39075;BME280;24826;52.070;20.970;2023-02-28T07:35:14;61549.78;;;-147.04;70.86
39075;BME280;24826;52.070;20.970;2023-02-28T07:37:59;61573.66;;;-147.04;69.00
39075;BME280;24826;52.070;20.970;2023-02-28T07:40:43;61539.84;;;-147.04;68.44
39075;BME280;24826;52.070;20.970;2023-02-28T07:43:28;61571.66;;;-147.04;66.65
39075;BME280;24826;52.070;20.970;2023-02-28T07:46:14;61539.84;;;-147.04;64.85
39075;BME280;24826;52.070;20.970;2023-02-28T07:48:59;61555.75;;;-147.04;64.31
39075;BME280;24826;52.070;20.970;2023-02-28T07:51:44;61577.63;;;-147.04;62.24
39075;BME280;24826;52.070;20.970;2023-02-28T07:54:28;61567.69;;;-147.04;62.27
39075;BME280;24826;52.070;20.970;2023-02-28T07:57:13;61569.66;;;-147.04;61.11
39075;BME280;24826;52.070;20.970;2023-02-28T07:59:58;61563.69;;;-147.04;59.28
39075;BME280;24826;52.070;20.970;2023-02-28T08:02:42;61557.75;;;-147.04;57.94
39075;BME280;24826;52.070;20.970;2023-02-28T08:05:26;61567.69;;;-147.04;57.31
39075;BME280;24826;52.070;20.970;2023-02-28T08:08:11;61559.72;;;-147.04;58.00
39075;BME280;24826;52.070;20.970;2023-02-28T08:10:55;61541.81;;;-147.04;58.14
39075;BME280;24826;52.070;20.970;2023-02-28T08:13:39;61525.91;;;-147.04;57.70
39075;BME280;24826;52.070;20.970;2023-02-28T08:16:23;61583.59;;;-147.04;57.11
39075;BME280;24826;52.070;20.970;2023-02-28T08:19:08;61541.81;;;-147.04;55.58
39075;BME280;24826;52.070;20.970;2023-02-28T08:21:53;61575.63;;;-147.04;57.20
39075;BME280;24826;52.070;20.970;2023-02-28T08:24:37;61547.78;;;-147.04;56.32
39075;BME280;24826;52.070;20.970;2023-02-28T08:27:22;61551.78;;;-147.04;54.32
39075;BME280;24826;52.070;20.970;2023-02-28T08:30:10;61553.75;;;-147.04;53.07
39075;BME280;24826;52.070;20.970;2023-02-28T08:32:54;61508.03;;;-147.04;52.21
39075;BME280;24826;52.070;20.970;2023-02-28T08:35:39;61523.94;;;-147.04;51.25
39075;BME280;24826;52.070;20.970;2023-02-28T08:38:23;61525.91;;;-147.04;49.01
39075;BME280;24826;52.070;20.970;2023-02-28T08:41:10;61537.84;;;-147.04;49.82
39075;BME280;24826;52.070;20.970;2023-02-28T08:43:55;61543.81;;;-147.04;49.94
39075;BME280;24826;52.070;20.970;2023-02-28T08:46:39;61535.88;;;-147.04;49.30
39075;BME280;24826;52.070;20.970;2023-02-28T08:49:24;61533.88;;;-147.04;48.81
39075;BME280;24826;52.070;20.970;2023-02-28T08:52:08;61510.00;;;-147.04;49.44
39075;BME280;24826;52.070;20.970;2023-02-28T08:54:53;61537.84;;;-147.04;49.14
39075;BME280;24826;52.070;20.970;2023-02-28T08:57:37;61535.88;;;-147.04;48.64
39075;BME280;24826;52.070;20.970;2023-02-28T09:00:22;61504.03;;;-147.04;47.59
39075;BME280;24826;52.070;20.970;2023-02-28T09:03:06;61500.06;;;-147.04;48.22
39075;BME280;24826;52.070;20.970;2023-02-28T09:08:38;61523.94;;;-147.04;48.19
39075;BME280;24826;52.070;20.970;2023-02-28T09:11:23;61525.91;;;-147.04;47.64
39075;BME280;24826;52.070;20.970;2023-02-28T09:14:07;61537.84;;;-147.04;46.83
39075;BME280;24826;52.070;20.970;2023-02-28T09:16:51;61555.75;;;-147.04;46.18
39075;BME280;24826;52.070;20.970;2023-02-28T09:19:36;61533.88;;;-147.04;46.36
39075;BME280;24826;52.070;20.970;2023-02-28T09:22:20;61525.91;;;-147.04;46.59
39075;BME280;24826;52.070;20.970;2023-02-28T09:25:05;61523.94;;;-147.04;46.21
39075;BME280;24826;52.070;20.970;2023-02-28T09:27:49;61506.03;;;-147.04;45.96
39075;BME280;24826;52.070;20.970;2023-02-28T09:30:34;61519.94;;;-147.04;45.82
39075;BME280;24826;52.070;20.970;2023-02-28T09:33:20;61512.00;;;-147.04;46.43
39075;BME280;24826;52.070;20.970;2023-02-28T09:36:05;61484.16;;;-147.04;46.07
39075;BME280;24826;52.070;20.970;2023-02-28T09:38:49;61496.09;;;-147.04;46.64
39075;BME280;24826;52.070;20.970;2023-02-28T09:41:42;61496.09;;;-147.04;46.53
39075;BME280;24826;52.070;20.970;2023-02-28T09:44:38;61492.13;;;-147.04;44.20
39075;BME280;24826;52.070;20.970;2023-02-28T09:47:32;61498.09;;;-147.04;45.39
39075;BME280;24826;52.070;20.970;2023-02-28T09:53:27;61468.25;;;-147.04;44.15
39075;BME280;24826;52.070;20.970;2023-02-28T09:56:19;61476.22;;;-147.04;44.31
39075;BME280;24826;52.070;20.970;2023-02-28T09:59:50;61464.28;;;-147.04;44.44
39075;BME280;24826;52.070;20.970;2023-02-28T10:02:52;61504.03;;;-147.04;44.33
39075;BME280;24826;52.070;20.970;2023-02-28T10:05:52;61476.22;;;-147.04;44.90
39075;BME280;24826;52.070;20.970;2023-02-28T10:08:45;61480.19;;;-147.04;44.52
39075;BME280;24826;52.070;20.970;2023-02-28T10:11:35;61484.16;;;-147.04;43.06
39075;BME280;24826;52.070;20.970;2023-02-28T10:14:24;61464.28;;;-147.04;43.02
39075;BME280;24826;52.070;20.970;2023-02-28T10:17:13;61496.09;;;-147.04;43.41
39075;BME280;24826;52.070;20.970;2023-02-28T10:23:08;61460.31;;;-147.04;43.30
39075;BME280;24826;52.070;20.970;2023-02-28T10:25:58;61466.25;;;-147.04;43.12
39075;BME280;24826;52.070;20.970;2023-02-28T10:28:43;61436.44;;;-147.04;43.77
39075;BME280;24826;52.070;20.970;2023-02-28T10:31:28;61464.28;;;-147.04;42.72
39075;BME280;24826;52.070;20.970;2023-02-28T10:34:12;61454.34;;;-147.04;42.57
39075;BME280;24826;52.070;20.970;2023-02-28T10:36:58;61484.16;;;-147.04;42.85
39075;BME280;24826;52.070;20.970;2023-02-28T10:39:51;61454.34;;;-147.04;43.29
39075;BME280;24826;52.070;20.970;2023-02-28T10:42:35;61428.47;;;-147.04;42.76
39075;BME280;24826;52.070;20.970;2023-02-28T10:45:24;61420.53;;;-147.04;44.14
39075;BME280;24826;52.070;20.970;2023-02-28T10:50:53;61444.41;;;-147.04;43.48
39075;BME280;24826;52.070;20.970;2023-02-28T10:56:32;61438.44;;;-147.04;42.68
39075;BME280;24826;52.070;20.970;2023-02-28T10:59:27;61466.25;;;-147.04;42.21
39075;BME280;24826;52.070;20.970;2023-02-28T11:02:33;61476.22;;;-147.04;42.16
39075;BME280;24826;52.070;20.970;2023-02-28T11:05:32;61448.38;;;-147.04;42.88
39075;BME280;24826;52.070;20.970;2023-02-28T11:08:18;61456.31;;;-147.04;42.05
39075;BME280;24826;52.070;20.970;2023-02-28T11:11:06;61480.19;;;-147.04;41.61
39075;BME280;24826;52.070;20.970;2023-02-28T11:13:54;61456.31;;;-147.04;41.40
39075;BME280;24826;52.070;20.970;2023-02-28T11:16:39;61492.13;;;-147.04;41.76
39075;BME280;24826;52.070;20.970;2023-02-28T11:19:27;61484.16;;;-147.04;42.08
39075;BME280;24826;52.070;20.970;2023-02-28T11:22:19;61504.03;;;-147.04;41.42
39075;BME280;24826;52.070;20.970;2023-02-28T11:28:22;61480.19;;;-147.04;41.78
39075;BME280;24826;52.070;20.970;2023-02-28T11:34:00;61448.38;;;-147.04;41.71
39075;BME280;24826;52.070;20.970;2023-02-28T11:36:44;61452.34;;;-147.04;41.42
39075;BME280;24826;52.070;20.970;2023-02-28T11:39:28;61492.13;;;-147.04;40.90
39075;BME280;24826;52.070;20.970;2023-02-28T11:43:09;61430.47;;;-147.04;40.94
39075;BME280;24826;52.070;20.970;2023-02-28T11:52:00;61424.50;;;-147.04;40.99
39075;BME280;24826;52.070;20.970;2023-02-28T12:07:07;61408.59;;;-147.04;41.01
39075;BME280;24826;52.070;20.970;2023-02-28T12:10:24;61432.47;;;-147.04;41.20
39075;BME280;24826;52.070;20.970;2023-02-28T12:13:27;61454.34;;;-147.04;41.98
39075;BME280;24826;52.070;20.970;2023-02-28T12:16:23;61404.63;;;-147.04;41.68
39075;BME280;24826;52.070;20.970;2023-02-28T12:19:22;61438.44;;;-147.04;41.12
39075;BME280;24826;52.070;20.970;2023-02-28T12:22:14;61424.50;;;-147.04;42.26
39075;BME280;24826;52.070;20.970;2023-02-28T12:25:19;61432.47;;;-147.04;41.38
39075;BME280;24826;52.070;20.970;2023-02-28T12:28:08;61410.59;;;-147.04;41.12
39075;BME280;24826;52.070;20.970;2023-02-28T12:31:23;61412.56;;;-147.04;40.60
39075;BME280;24826;52.070;20.970;2023-02-28T12:34:19;61406.63;;;-147.04;41.20
39075;BME280;24826;52.070;20.970;2023-02-28T12:37:14;61404.63;;;-147.04;41.58
39075;BME280;24826;52.070;20.970;2023-02-28T12:40:04;61420.53;;;-147.04;41.33
39075;BME280;24826;52.070;20.970;2023-02-28T12:42:59;61424.50;;;-147.04;40.94
39075;BME280;24826;52.070;20.970;2023-02-28T12:45:57;61416.56;;;-147.04;40.85
39075;BME280;24826;52.070;20.970;2023-02-28T12:48:47;61398.66;;;-147.04;40.78
39075;BME280;24826;52.070;20.970;2023-02-28T12:51:32;61428.47;;;-147.04;40.62
39075;BME280;24826;52.070;20.970;2023-02-28T12:54:21;61410.59;;;-147.04;40.55
39075;BME280;24826;52.070;20.970;2023-02-28T12:57:13;61424.50;;;-147.04;40.80
39075;BME280;24826;52.070;20.970;2023-02-28T13:03:22;61396.66;;;-147.04;41.22
39075;BME280;24826;52.070;20.970;2023-02-28T13:06:27;61402.63;;;-147.04;40.96
39075;BME280;24826;52.070;20.970;2023-02-28T13:09:17;61404.63;;;-147.04;41.10
39075;BME280;24826;52.070;20.970;2023-02-28T13:12:12;61396.66;;;-147.04;41.03
39075;BME280;24826;52.070;20.970;2023-02-28T13:15:27;61378.78;;;-147.04;41.26
39075;BME280;24826;52.070;20.970;2023-02-28T13:21:23;61416.56;;;-147.04;41.28
39075;BME280;24826;52.070;20.970;2023-02-28T13:24:09;61394.69;;;-147.04;41.25
39075;BME280;24826;52.070;20.970;2023-02-28T13:29:43;61394.69;;;-147.04;40.96
39075;BME280;24826;52.070;20.970;2023-02-28T13:32:31;61394.69;;;-147.04;40.83
39075;BME280;24826;52.070;20.970;2023-02-28T13:35:35;61390.72;;;-147.04;40.80
39075;BME280;24826;52.070;20.970;2023-02-28T13:38:31;61398.66;;;-147.04;41.05
39075;BME280;24826;52.070;20.970;2023-02-28T13:44:19;61378.78;;;-147.04;41.76
39075;BME280;24826;52.070;20.970;2023-02-28T13:49:51;61380.75;;;-147.04;41.17
39075;BME280;24826;52.070;20.970;2023-02-28T13:55:53;61396.66;;;-147.04;41.53
39075;BME280;24826;52.070;20.970;2023-02-28T13:59:25;61390.72;;;-147.04;41.18
39075;BME280;24826;52.070;20.970;2023-02-28T14:05:20;61400.66;;;-147.04;41.55
39075;BME280;24826;52.070;20.970;2023-02-28T14:08:21;61424.50;;;-147.04;41.16
39075;BME280;24826;52.070;20.970;2023-02-28T14:11:25;61376.78;;;-147.04;40.99
39075;BME280;24826;52.070;20.970;2023-02-28T14:17:20;61392.69;;;-147.04;41.92
39075;BME280;24826;52.070;20.970;2023-02-28T14:20:04;61388.72;;;-147.04;42.24
39075;BME280;24826;52.070;20.970;2023-02-28T14:23:05;61474.22;;;-147.04;42.11
39075;BME280;24826;52.070;20.970;2023-02-28T14:26:04;61430.47;;;-147.04;42.41
39075;BME280;24826;52.070;20.970;2023-02-28T14:29:07;61394.69;;;-147.04;41.84
39075;BME280;24826;52.070;20.970;2023-02-28T14:32:10;61434.44;;;-147.04;42.14
39075;BME280;24826;52.070;20.970;2023-02-28T14:38:14;61406.63;;;-147.04;42.24
39075;BME280;24826;52.070;20.970;2023-02-28T14:41:06;61386.72;;;-147.04;42.73
39075;BME280;24826;52.070;20.970;2023-02-28T14:43:59;61374.78;;;-147.04;42.34
39075;BME280;24826;52.070;20.970;2023-02-28T14:46:45;61374.78;;;-147.04;42.44
39075;BME280;24826;52.070;20.970;2023-02-28T14:49:35;61398.66;;;-147.04;42.58
39075;BME280;24826;52.070;20.970;2023-02-28T14:55:13;61364.84;;;-147.04;42.67
39075;BME280;24826;52.070;20.970;2023-02-28T14:58:05;61364.84;;;-147.04;43.09
39075;BME280;24826;52.070;20.970;2023-02-28T15:00:53;61388.72;;;-147.04;43.29
39075;BME280;24826;52.070;20.970;2023-02-28T15:03:39;61406.63;;;-147.04;42.96
39075;BME280;24826;52.070;20.970;2023-02-28T15:06:26;61354.91;;;-147.04;43.10
39075;BME280;24826;52.070;20.970;2023-02-28T15:09:15;61368.84;;;-147.04;43.61
39075;BME280;24826;52.070;20.970;2023-02-28T15:11:59;61333.03;;;-147.04;43.69
39075;BME280;24826;52.070;20.970;2023-02-28T15:14:44;61356.91;;;-147.04;43.61
39075;BME280;24826;52.070;20.970;2023-02-28T15:17:29;61327.06;;;-147.04;43.51
39075;BME280;24826;52.070;20.970;2023-02-28T15:20:15;61356.91;;;-147.04;43.72
39075;BME280;24826;52.070;20.970;2023-02-28T15:23:00;61350.94;;;-147.04;44.21
39075;BME280;24826;52.070;20.970;2023-02-28T15:25:46;61344.97;;;-147.04;43.88
39075;BME280;24826;52.070;20.970;2023-02-28T15:28:31;61297.25;;;-147.04;44.23
39075;BME280;24826;52.070;20.970;2023-02-28T15:31:21;61348.94;;;-147.04;44.23
39075;BME280;24826;52.070;20.970;2023-02-28T15:34:18;61360.88;;;-147.04;44.60
39075;BME280;24826;52.070;20.970;2023-02-28T15:40:25;61352.94;;;-147.04;45.63
39075;BME280;24826;52.070;20.970;2023-02-28T15:43:17;61333.03;;;-147.04;46.24
39075;BME280;24826;52.070;20.970;2023-02-28T15:46:08;61358.88;;;-147.04;45.71
39075;BME280;24826;52.070;20.970;2023-02-28T15:48:55;61329.06;;;-147.04;45.54
39075;BME280;24826;52.070;20.970;2023-02-28T15:51:41;61325.09;;;-147.04;45.90
39075;BME280;24826;52.070;20.970;2023-02-28T15:54:33;61333.03;;;-147.04;46.33
39075;BME280;24826;52.070;20.970;2023-02-28T15:57:24;61301.22;;;-147.04;46.71
39075;BME280;24826;52.070;20.970;2023-02-28T16:00:13;61344.97;;;-147.04;47.24
39075;BME280;24826;52.070;20.970;2023-02-28T16:02:58;61442.41;;;-147.04;46.71